sensor_id;sensor_type;location;lat;lon;timestamp;temperature;humidity
45283;DHT22;31023;44.994;1.796;2023-04-06T00:01:48;8.10;57.40
45283;DHT22;31023;44.994;1.796;2023-04-06T00:04:14;8.00;57.40
45283;DHT22;31023;44.994;1.796;2023-04-06T00:06:40;7.90;58.30
45283;DHT22;31023;44.994;1.796;2023-04-06T00:09:05;7.90;58.20
45283;DHT22;31023;44.994;1.796;2023-04-06T00:11:31;7.80;58.00
45283;DHT22;31023;44.994;1.796;2023-04-06T00:13:57;7.80;58.20
45283;DHT22;31023;44.994;1.796;2023-04-06T00:16:23;7.80;58.10
45283;DHT22;31023;44.994;1.796;2023-04-06T00:18:48;7.70;58.30
45283;DHT22;31023;44.994;1.796;2023-04-06T00:21:14;7.70;58.70
45283;DHT22;31023;44.994;1.796;2023-04-06T00:23:41;7.70;58.10
45283;DHT22;31023;44.994;1.796;2023-04-06T00:26:07;7.70;58.20
45283;DHT22;31023;44.994;1.796;2023-04-06T00:28:33;7.70;58.20
45283;DHT22;31023;44.994;1.796;2023-04-06T00:30:59;7.70;58.90
45283;DHT22;31023;44.994;1.796;2023-04-06T00:33:25;7.60;58.90
45283;DHT22;31023;44.994;1.796;2023-04-06T00:35:51;7.70;58.50
45283;DHT22;31023;44.994;1.796;2023-04-06T00:38:17;7.70;58.70
45283;DHT22;31023;44.994;1.796;2023-04-06T00:40:43;7.80;58.50
45283;DHT22;31023;44.994;1.796;2023-04-06T00:43:12;7.90;58.30
45283;DHT22;31023;44.994;1.796;2023-04-06T00:45:39;7.90;58.60
45283;DHT22;31023;44.994;1.796;2023-04-06T00:48:05;7.90;58.30
45283;DHT22;31023;44.994;1.796;2023-04-06T00:50:31;7.90;58.10
45283;DHT22;31023;44.994;1.796;2023-04-06T00:52:58;7.90;58.50
45283;DHT22;31023;44.994;1.796;2023-04-06T00:55:24;7.90;58.50
45283;DHT22;31023;44.994;1.796;2023-04-06T00:57:49;7.90;58.20
45283;DHT22;31023;44.994;1.796;2023-04-06T01:00:16;7.90;59.10
45283;DHT22;31023;44.994;1.796;2023-04-06T01:02:42;7.80;60.10
45283;DHT22;31023;44.994;1.796;2023-04-06T01:05:10;7.80;59.80
45283;DHT22;31023;44.994;1.796;2023-04-06T01:07:36;7.80;59.10
45283;DHT22;31023;44.994;1.796;2023-04-06T01:10:01;7.80;59.30
45283;DHT22;31023;44.994;1.796;2023-04-06T01:12:28;7.80;59.60
45283;DHT22;31023;44.994;1.796;2023-04-06T01:14:54;7.80;60.00
45283;DHT22;31023;44.994;1.796;2023-04-06T01:17:20;7.70;59.60
45283;DHT22;31023;44.994;1.796;2023-04-06T01:19:45;7.70;60.70
45283;DHT22;31023;44.994;1.796;2023-04-06T01:22:18;7.70;60.40
45283;DHT22;31023;44.994;1.796;2023-04-06T01:24:44;7.70;61.00
45283;DHT22;31023;44.994;1.796;2023-04-06T01:27:10;7.60;61.60
45283;DHT22;31023;44.994;1.796;2023-04-06T01:29:36;7.60;61.60
45283;DHT22;31023;44.994;1.796;2023-04-06T01:32:02;7.60;61.30
45283;DHT22;31023;44.994;1.796;2023-04-06T01:34:28;7.50;62.70
45283;DHT22;31023;44.994;1.796;2023-04-06T01:36:54;7.50;62.80
45283;DHT22;31023;44.994;1.796;2023-04-06T01:39:20;7.40;63.40
45283;DHT22;31023;44.994;1.796;2023-04-06T01:41:46;7.40;63.00
45283;DHT22;31023;44.994;1.796;2023-04-06T01:44:18;7.40;62.90
45283;DHT22;31023;44.994;1.796;2023-04-06T01:46:46;7.40;63.40
45283;DHT22;31023;44.994;1.796;2023-04-06T01:49:12;7.30;63.50
45283;DHT22;31023;44.994;1.796;2023-04-06T01:51:38;7.30;64.20
45283;DHT22;31023;44.994;1.796;2023-04-06T01:54:04;7.30;63.60
45283;DHT22;31023;44.994;1.796;2023-04-06T01:56:30;7.30;63.10
45283;DHT22;31023;44.994;1.796;2023-04-06T01:58:55;7.30;63.80
45283;DHT22;31023;44.994;1.796;2023-04-06T02:01:21;7.30;63.80
45283;DHT22;31023;44.994;1.796;2023-04-06T02:03:47;7.30;63.90
45283;DHT22;31023;44.994;1.796;2023-04-06T02:06:13;7.20;64.50
45283;DHT22;31023;44.994;1.796;2023-04-06T02:08:38;7.20;64.20
45283;DHT22;31023;44.994;1.796;2023-04-06T02:11:04;7.20;65.00
45283;DHT22;31023;44.994;1.796;2023-04-06T02:13:30;7.20;64.80
45283;DHT22;31023;44.994;1.796;2023-04-06T02:15:56;7.20;63.90
45283;DHT22;31023;44.994;1.796;2023-04-06T02:18:22;7.20;64.70
45283;DHT22;31023;44.994;1.796;2023-04-06T02:20:48;7.20;66.10
45283;DHT22;31023;44.994;1.796;2023-04-06T02:23:14;7.10;65.00
45283;DHT22;31023;44.994;1.796;2023-04-06T02:25:40;7.10;65.20
45283;DHT22;31023;44.994;1.796;2023-04-06T02:28:06;7.10;65.30
45283;DHT22;31023;44.994;1.796;2023-04-06T02:30:32;7.10;65.30
45283;DHT22;31023;44.994;1.796;2023-04-06T02:32:59;7.10;64.80
45283;DHT22;31023;44.994;1.796;2023-04-06T02:35:25;7.10;65.50
45283;DHT22;31023;44.994;1.796;2023-04-06T02:37:51;7.10;64.40
45283;DHT22;31023;44.994;1.796;2023-04-06T02:40:17;7.10;65.00
45283;DHT22;31023;44.994;1.796;2023-04-06T02:42:42;7.20;64.70
45283;DHT22;31023;44.994;1.796;2023-04-06T02:45:08;7.20;64.50
45283;DHT22;31023;44.994;1.796;2023-04-06T02:47:34;7.20;64.60
45283;DHT22;31023;44.994;1.796;2023-04-06T02:49:59;7.10;65.10
45283;DHT22;31023;44.994;1.796;2023-04-06T02:52:25;7.20;65.10
45283;DHT22;31023;44.994;1.796;2023-04-06T02:54:51;7.30;64.50
45283;DHT22;31023;44.994;1.796;2023-04-06T02:57:17;7.20;64.40
45283;DHT22;31023;44.994;1.796;2023-04-06T02:59:42;7.30;64.20
45283;DHT22;31023;44.994;1.796;2023-04-06T03:02:08;7.30;63.90
45283;DHT22;31023;44.994;1.796;2023-04-06T03:04:34;7.20;64.80
45283;DHT22;31023;44.994;1.796;2023-04-06T03:07:00;7.20;64.20
45283;DHT22;31023;44.994;1.796;2023-04-06T03:09:26;7.20;65.30
45283;DHT22;31023;44.994;1.796;2023-04-06T03:11:52;7.10;65.20
45283;DHT22;31023;44.994;1.796;2023-04-06T03:14:18;7.10;65.30
45283;DHT22;31023;44.994;1.796;2023-04-06T03:16:47;7.10;65.00
45283;DHT22;31023;44.994;1.796;2023-04-06T03:19:13;7.10;65.80
45283;DHT22;31023;44.994;1.796;2023-04-06T03:21:39;7.00;65.90
45283;DHT22;31023;44.994;1.796;2023-04-06T03:24:05;7.00;66.00
45283;DHT22;31023;44.994;1.796;2023-04-06T03:26:31;6.90;66.60
45283;DHT22;31023;44.994;1.796;2023-04-06T03:28:56;6.90;67.00
45283;DHT22;31023;44.994;1.796;2023-04-06T03:31:22;6.90;66.70
45283;DHT22;31023;44.994;1.796;2023-04-06T03:33:48;6.90;66.60
45283;DHT22;31023;44.994;1.796;2023-04-06T03:36:13;6.90;66.60
45283;DHT22;31023;44.994;1.796;2023-04-06T03:38:40;6.90;66.40
45283;DHT22;31023;44.994;1.796;2023-04-06T03:41:05;7.00;66.60
45283;DHT22;31023;44.994;1.796;2023-04-06T03:43:31;7.00;66.10
45283;DHT22;31023;44.994;1.796;2023-04-06T03:45:57;7.00;66.00
45283;DHT22;31023;44.994;1.796;2023-04-06T03:48:22;7.00;66.00
45283;DHT22;31023;44.994;1.796;2023-04-06T03:50:48;6.90;65.90
45283;DHT22;31023;44.994;1.796;2023-04-06T03:53:14;6.90;65.90
45283;DHT22;31023;44.994;1.796;2023-04-06T03:55:39;6.80;66.20
45283;DHT22;31023;44.994;1.796;2023-04-06T03:58:05;6.80;66.40
45283;DHT22;31023;44.994;1.796;2023-04-06T04:00:31;6.90;66.40
45283;DHT22;31023;44.994;1.796;2023-04-06T04:02:58;6.70;67.10
45283;DHT22;31023;44.994;1.796;2023-04-06T04:05:24;6.70;66.80
45283;DHT22;31023;44.994;1.796;2023-04-06T04:07:51;6.70;66.20
45283;DHT22;31023;44.994;1.796;2023-04-06T04:10:17;6.80;66.40
45283;DHT22;31023;44.994;1.796;2023-04-06T04:12:43;6.70;66.60
45283;DHT22;31023;44.994;1.796;2023-04-06T04:15:09;6.70;66.20
45283;DHT22;31023;44.994;1.796;2023-04-06T04:17:34;6.80;65.90
45283;DHT22;31023;44.994;1.796;2023-04-06T04:20:00;6.80;66.10
45283;DHT22;31023;44.994;1.796;2023-04-06T04:22:26;6.80;66.00
45283;DHT22;31023;44.994;1.796;2023-04-06T04:24:53;6.80;65.80
45283;DHT22;31023;44.994;1.796;2023-04-06T04:27:19;6.80;66.10
45283;DHT22;31023;44.994;1.796;2023-04-06T04:29:45;6.70;66.20
45283;DHT22;31023;44.994;1.796;2023-04-06T04:32:10;6.70;66.40
45283;DHT22;31023;44.994;1.796;2023-04-06T04:34:36;6.70;65.90
45283;DHT22;31023;44.994;1.796;2023-04-06T04:37:05;6.80;66.30
45283;DHT22;31023;44.994;1.796;2023-04-06T04:39:31;6.70;66.50
45283;DHT22;31023;44.994;1.796;2023-04-06T04:41:57;6.50;67.50
45283;DHT22;31023;44.994;1.796;2023-04-06T04:44:23;6.50;67.00
45283;DHT22;31023;44.994;1.796;2023-04-06T04:46:48;6.50;66.90
45283;DHT22;31023;44.994;1.796;2023-04-06T04:49:14;6.40;67.10
45283;DHT22;31023;44.994;1.796;2023-04-06T04:51:40;6.40;67.10
45283;DHT22;31023;44.994;1.796;2023-04-06T04:54:06;6.40;67.00
45283;DHT22;31023;44.994;1.796;2023-04-06T04:56:31;6.30;67.30
45283;DHT22;31023;44.994;1.796;2023-04-06T04:58:57;6.30;67.50
45283;DHT22;31023;44.994;1.796;2023-04-06T05:01:23;6.30;67.70
45283;DHT22;31023;44.994;1.796;2023-04-06T05:03:48;6.30;67.80
45283;DHT22;31023;44.994;1.796;2023-04-06T05:06:14;6.30;68.60
45283;DHT22;31023;44.994;1.796;2023-04-06T05:08:41;6.20;67.80
45283;DHT22;31023;44.994;1.796;2023-04-06T05:11:06;6.30;67.80
45283;DHT22;31023;44.994;1.796;2023-04-06T05:13:32;6.30;67.50
45283;DHT22;31023;44.994;1.796;2023-04-06T05:15:58;6.30;67.90
45283;DHT22;31023;44.994;1.796;2023-04-06T05:18:23;6.30;67.80
45283;DHT22;31023;44.994;1.796;2023-04-06T05:20:50;6.30;67.80
45283;DHT22;31023;44.994;1.796;2023-04-06T05:23:16;6.30;67.90
45283;DHT22;31023;44.994;1.796;2023-04-06T05:25:42;6.30;67.90
45283;DHT22;31023;44.994;1.796;2023-04-06T05:28:08;6.30;67.80
45283;DHT22;31023;44.994;1.796;2023-04-06T05:30:34;6.30;67.80
45283;DHT22;31023;44.994;1.796;2023-04-06T05:33:01;6.30;68.20
45283;DHT22;31023;44.994;1.796;2023-04-06T05:35:26;6.20;68.30
45283;DHT22;31023;44.994;1.796;2023-04-06T05:37:52;6.20;68.60
45283;DHT22;31023;44.994;1.796;2023-04-06T05:40:18;6.20;69.10
45283;DHT22;31023;44.994;1.796;2023-04-06T05:42:44;6.10;68.80
45283;DHT22;31023;44.994;1.796;2023-04-06T05:45:11;6.20;68.80
45283;DHT22;31023;44.994;1.796;2023-04-06T05:47:42;6.20;69.00
45283;DHT22;31023;44.994;1.796;2023-04-06T05:50:08;6.20;68.90
45283;DHT22;31023;44.994;1.796;2023-04-06T05:52:33;6.10;68.90
45283;DHT22;31023;44.994;1.796;2023-04-06T05:54:59;6.20;68.80
45283;DHT22;31023;44.994;1.796;2023-04-06T05:57:25;6.20;69.00
45283;DHT22;31023;44.994;1.796;2023-04-06T05:59:51;6.30;68.80
45283;DHT22;31023;44.994;1.796;2023-04-06T06:02:17;6.50;68.50
45283;DHT22;31023;44.994;1.796;2023-04-06T06:04:42;6.60;68.50
45283;DHT22;31023;44.994;1.796;2023-04-06T06:07:08;6.70;68.30
45283;DHT22;31023;44.994;1.796;2023-04-06T06:09:34;6.60;68.70
45283;DHT22;31023;44.994;1.796;2023-04-06T06:12:00;6.80;68.40
45283;DHT22;31023;44.994;1.796;2023-04-06T06:14:26;7.10;67.30
45283;DHT22;31023;44.994;1.796;2023-04-06T06:16:54;6.70;68.60
45283;DHT22;31023;44.994;1.796;2023-04-06T06:19:19;6.60;69.20
45283;DHT22;31023;44.994;1.796;2023-04-06T06:21:45;6.70;68.80
45283;DHT22;31023;44.994;1.796;2023-04-06T06:24:11;7.10;68.00
45283;DHT22;31023;44.994;1.796;2023-04-06T06:26:37;8.10;66.00
45283;DHT22;31023;44.994;1.796;2023-04-06T06:29:05;9.10;65.10
45283;DHT22;31023;44.994;1.796;2023-04-06T06:31:31;10.00;64.00
45283;DHT22;31023;44.994;1.796;2023-04-06T06:33:57;10.70;62.10
45283;DHT22;31023;44.994;1.796;2023-04-06T06:36:22;11.30;61.60
45283;DHT22;31023;44.994;1.796;2023-04-06T06:38:48;10.70;60.70
45283;DHT22;31023;44.994;1.796;2023-04-06T06:41:14;10.80;61.20
45283;DHT22;31023;44.994;1.796;2023-04-06T06:43:39;11.20;59.90
45283;DHT22;31023;44.994;1.796;2023-04-06T06:46:05;11.90;58.90
45283;DHT22;31023;44.994;1.796;2023-04-06T06:48:31;12.40;57.50
45283;DHT22;31023;44.994;1.796;2023-04-06T06:50:57;12.60;57.10
45283;DHT22;31023;44.994;1.796;2023-04-06T06:53:23;12.80;57.50
45283;DHT22;31023;44.994;1.796;2023-04-06T06:55:49;13.00;55.80
45283;DHT22;31023;44.994;1.796;2023-04-06T06:58:15;13.30;54.60
45283;DHT22;31023;44.994;1.796;2023-04-06T07:00:41;13.40;55.50
45283;DHT22;31023;44.994;1.796;2023-04-06T07:03:06;13.60;55.70
45283;DHT22;31023;44.994;1.796;2023-04-06T07:05:32;14.00;54.60
45283;DHT22;31023;44.994;1.796;2023-04-06T07:07:58;14.50;52.60
45283;DHT22;31023;44.994;1.796;2023-04-06T07:10:24;14.40;52.90
45283;DHT22;31023;44.994;1.796;2023-04-06T07:12:50;14.50;53.50
45283;DHT22;31023;44.994;1.796;2023-04-06T07:15:16;14.50;54.00
45283;DHT22;31023;44.994;1.796;2023-04-06T07:17:42;14.80;53.40
45283;DHT22;31023;44.994;1.796;2023-04-06T07:20:10;14.70;52.70
45283;DHT22;31023;44.994;1.796;2023-04-06T07:22:37;15.30;51.90
45283;DHT22;31023;44.994;1.796;2023-04-06T07:25:03;15.00;51.40
45283;DHT22;31023;44.994;1.796;2023-04-06T07:27:29;15.50;52.50
45283;DHT22;31023;44.994;1.796;2023-04-06T07:29:54;15.70;50.80
45283;DHT22;31023;44.994;1.796;2023-04-06T07:32:20;15.80;51.20
45283;DHT22;31023;44.994;1.796;2023-04-06T07:34:46;16.90;51.00
45283;DHT22;31023;44.994;1.796;2023-04-06T07:37:12;14.70;51.50
45283;DHT22;31023;44.994;1.796;2023-04-06T07:39:38;14.20;53.70
45283;DHT22;31023;44.994;1.796;2023-04-06T07:42:03;13.10;54.50
45283;DHT22;31023;44.994;1.796;2023-04-06T07:44:29;13.60;53.80
45283;DHT22;31023;44.994;1.796;2023-04-06T07:46:55;13.10;56.50
45283;DHT22;31023;44.994;1.796;2023-04-06T07:49:21;13.00;55.70
45283;DHT22;31023;44.994;1.796;2023-04-06T07:51:48;12.60;56.70
45283;DHT22;31023;44.994;1.796;2023-04-06T07:54:13;12.80;55.30
45283;DHT22;31023;44.994;1.796;2023-04-06T07:56:39;12.60;54.60
45283;DHT22;31023;44.994;1.796;2023-04-06T07:59:05;12.40;55.00
45283;DHT22;31023;44.994;1.796;2023-04-06T08:01:31;12.30;55.70
45283;DHT22;31023;44.994;1.796;2023-04-06T08:03:56;12.40;56.70
45283;DHT22;31023;44.994;1.796;2023-04-06T08:06:22;12.40;56.10
45283;DHT22;31023;44.994;1.796;2023-04-06T08:08:48;12.60;56.20
45283;DHT22;31023;44.994;1.796;2023-04-06T08:11:14;12.90;55.10
45283;DHT22;31023;44.994;1.796;2023-04-06T08:13:39;12.90;54.20
45283;DHT22;31023;44.994;1.796;2023-04-06T08:16:05;13.00;53.70
45283;DHT22;31023;44.994;1.796;2023-04-06T08:18:32;12.90;55.40
45283;DHT22;31023;44.994;1.796;2023-04-06T08:20:57;13.10;55.80
45283;DHT22;31023;44.994;1.796;2023-04-06T08:23:23;13.20;57.30
45283;DHT22;31023;44.994;1.796;2023-04-06T08:25:49;13.00;55.60
45283;DHT22;31023;44.994;1.796;2023-04-06T08:28:14;13.00;54.80
45283;DHT22;31023;44.994;1.796;2023-04-06T08:30:42;13.30;53.60
45283;DHT22;31023;44.994;1.796;2023-04-06T08:33:08;13.60;54.80
45283;DHT22;31023;44.994;1.796;2023-04-06T08:35:34;13.60;52.60
45283;DHT22;31023;44.994;1.796;2023-04-06T08:38:00;14.30;52.10
45283;DHT22;31023;44.994;1.796;2023-04-06T08:40:26;15.60;50.00
45283;DHT22;31023;44.994;1.796;2023-04-06T08:42:54;15.20;52.40
45283;DHT22;31023;44.994;1.796;2023-04-06T08:45:21;16.10;51.90
45283;DHT22;31023;44.994;1.796;2023-04-06T08:47:51;18.00;50.80
45283;DHT22;31023;44.994;1.796;2023-04-06T08:50:18;19.20;49.70
45283;DHT22;31023;44.994;1.796;2023-04-06T08:52:46;18.30;47.50
45283;DHT22;31023;44.994;1.796;2023-04-06T08:55:12;18.50;47.60
45283;DHT22;31023;44.994;1.796;2023-04-06T08:57:38;17.80;45.90
45283;DHT22;31023;44.994;1.796;2023-04-06T09:00:09;20.20;46.10
45283;DHT22;31023;44.994;1.796;2023-04-06T09:02:38;22.50;45.50
45283;DHT22;31023;44.994;1.796;2023-04-06T09:05:05;23.00;44.30
45283;DHT22;31023;44.994;1.796;2023-04-06T09:07:31;23.20;42.10
45283;DHT22;31023;44.994;1.796;2023-04-06T09:09:56;22.60;42.60
45283;DHT22;31023;44.994;1.796;2023-04-06T09:12:26;23.50;42.90
45283;DHT22;31023;44.994;1.796;2023-04-06T09:14:52;22.20;39.40
45283;DHT22;31023;44.994;1.796;2023-04-06T09:17:23;23.30;44.60
45283;DHT22;31023;44.994;1.796;2023-04-06T09:19:49;24.00;42.70
45283;DHT22;31023;44.994;1.796;2023-04-06T09:22:15;24.20;41.20
45283;DHT22;31023;44.994;1.796;2023-04-06T09:24:59;24.00;43.00
45283;DHT22;31023;44.994;1.796;2023-04-06T09:27:32;24.60;43.60
45283;DHT22;31023;44.994;1.796;2023-04-06T09:30:11;24.70;42.00
45283;DHT22;31023;44.994;1.796;2023-04-06T09:35:12;23.60;39.00
45283;DHT22;31023;44.994;1.796;2023-04-06T09:37:38;23.50;40.40
45283;DHT22;31023;44.994;1.796;2023-04-06T09:40:07;24.20;38.40
45283;DHT22;31023;44.994;1.796;2023-04-06T09:42:34;22.90;37.00
45283;DHT22;31023;44.994;1.796;2023-04-06T09:45:00;23.20;39.00
45283;DHT22;31023;44.994;1.796;2023-04-06T09:47:26;23.40;37.80
45283;DHT22;31023;44.994;1.796;2023-04-06T09:49:56;23.70;36.40
45283;DHT22;31023;44.994;1.796;2023-04-06T09:52:27;22.90;36.30
45283;DHT22;31023;44.994;1.796;2023-04-06T09:55:02;21.80;36.00
45283;DHT22;31023;44.994;1.796;2023-04-06T09:57:32;22.10;37.20
45283;DHT22;31023;44.994;1.796;2023-04-06T10:00:07;22.60;33.70
45283;DHT22;31023;44.994;1.796;2023-04-06T10:03:04;22.50;34.10
45283;DHT22;31023;44.994;1.796;2023-04-06T10:05:43;22.30;35.00
45283;DHT22;31023;44.994;1.796;2023-04-06T10:08:11;22.50;36.90
45283;DHT22;31023;44.994;1.796;2023-04-06T10:10:37;24.20;37.30
45283;DHT22;31023;44.994;1.796;2023-04-06T10:13:07;23.50;36.00
45283;DHT22;31023;44.994;1.796;2023-04-06T10:15:33;21.90;35.90
45283;DHT22;31023;44.994;1.796;2023-04-06T10:17:59;19.60;38.20
45283;DHT22;31023;44.994;1.796;2023-04-06T10:25:54;17.80;41.20
45283;DHT22;31023;44.994;1.796;2023-04-06T10:28:20;18.80;42.40
45283;DHT22;31023;44.994;1.796;2023-04-06T10:30:46;18.80;45.40
45283;DHT22;31023;44.994;1.796;2023-04-06T10:33:19;18.40;48.40
45283;DHT22;31023;44.994;1.796;2023-04-06T10:35:46;18.20;49.30
45283;DHT22;31023;44.994;1.796;2023-04-06T10:38:12;18.30;44.60
45283;DHT22;31023;44.994;1.796;2023-04-06T10:40:41;18.20;47.00
45283;DHT22;31023;44.994;1.796;2023-04-06T10:43:13;18.40;48.20
45283;DHT22;31023;44.994;1.796;2023-04-06T10:45:40;18.60;49.80
45283;DHT22;31023;44.994;1.796;2023-04-06T10:48:18;18.10;49.50
45283;DHT22;31023;44.994;1.796;2023-04-06T10:50:48;18.10;47.10
45283;DHT22;31023;44.994;1.796;2023-04-06T10:53:24;17.70;50.40
45283;DHT22;31023;44.994;1.796;2023-04-06T10:55:51;17.90;46.60
45283;DHT22;31023;44.994;1.796;2023-04-06T10:58:17;17.90;43.80
45283;DHT22;31023;44.994;1.796;2023-04-06T11:00:44;18.20;47.10
45283;DHT22;31023;44.994;1.796;2023-04-06T11:03:10;18.50;46.30
45283;DHT22;31023;44.994;1.796;2023-04-06T11:05:36;19.00;42.70
45283;DHT22;31023;44.994;1.796;2023-04-06T11:08:02;19.10;44.00
45283;DHT22;31023;44.994;1.796;2023-04-06T11:10:27;18.70;39.80
45283;DHT22;31023;44.994;1.796;2023-04-06T11:12:55;19.40;40.60
45283;DHT22;31023;44.994;1.796;2023-04-06T11:15:21;18.80;37.20
45283;DHT22;31023;44.994;1.796;2023-04-06T11:17:47;18.10;40.60
45283;DHT22;31023;44.994;1.796;2023-04-06T11:20:15;18.80;39.40
45283;DHT22;31023;44.994;1.796;2023-04-06T11:22:53;19.40;47.00
45283;DHT22;31023;44.994;1.796;2023-04-06T11:25:19;18.80;42.90
45283;DHT22;31023;44.994;1.796;2023-04-06T11:27:47;18.80;42.00
45283;DHT22;31023;44.994;1.796;2023-04-06T11:30:14;19.50;42.40
45283;DHT22;31023;44.994;1.796;2023-04-06T11:32:42;19.40;44.90
45283;DHT22;31023;44.994;1.796;2023-04-06T11:35:26;19.20;46.10
45283;DHT22;31023;44.994;1.796;2023-04-06T11:37:52;19.10;43.10
45283;DHT22;31023;44.994;1.796;2023-04-06T11:40:21;18.20;42.30
45283;DHT22;31023;44.994;1.796;2023-04-06T11:42:57;18.70;44.70
45283;DHT22;31023;44.994;1.796;2023-04-06T11:45:23;19.20;48.30
45283;DHT22;31023;44.994;1.796;2023-04-06T11:47:59;19.00;46.30
45283;DHT22;31023;44.994;1.796;2023-04-06T11:50:25;19.00;51.20
45283;DHT22;31023;44.994;1.796;2023-04-06T11:53:00;19.00;48.40
45283;DHT22;31023;44.994;1.796;2023-04-06T11:55:26;18.80;46.30
45283;DHT22;31023;44.994;1.796;2023-04-06T11:57:52;19.20;44.70
45283;DHT22;31023;44.994;1.796;2023-04-06T12:00:18;19.50;44.60
45283;DHT22;31023;44.994;1.796;2023-04-06T12:02:46;19.80;45.70
45283;DHT22;31023;44.994;1.796;2023-04-06T12:05:12;20.10;46.00
45283;DHT22;31023;44.994;1.796;2023-04-06T12:07:38;20.40;47.30
45283;DHT22;31023;44.994;1.796;2023-04-06T12:10:04;20.50;46.90
45283;DHT22;31023;44.994;1.796;2023-04-06T12:12:30;19.40;41.50
45283;DHT22;31023;44.994;1.796;2023-04-06T12:14:57;19.70;43.40
45283;DHT22;31023;44.994;1.796;2023-04-06T12:17:23;18.80;43.40
45283;DHT22;31023;44.994;1.796;2023-04-06T12:19:49;19.10;45.50
45283;DHT22;31023;44.994;1.796;2023-04-06T12:22:14;19.00;44.50
45283;DHT22;31023;44.994;1.796;2023-04-06T12:24:40;19.00;41.20
45283;DHT22;31023;44.994;1.796;2023-04-06T12:27:06;18.60;43.40
45283;DHT22;31023;44.994;1.796;2023-04-06T12:29:32;18.60;44.00
45283;DHT22;31023;44.994;1.796;2023-04-06T12:31:58;18.80;45.10
45283;DHT22;31023;44.994;1.796;2023-04-06T12:34:26;18.40;43.10
45283;DHT22;31023;44.994;1.796;2023-04-06T12:36:52;18.20;39.10
45283;DHT22;31023;44.994;1.796;2023-04-06T12:39:19;18.50;41.30
45283;DHT22;31023;44.994;1.796;2023-04-06T12:41:45;18.80;44.90
45283;DHT22;31023;44.994;1.796;2023-04-06T12:44:11;18.40;41.90
45283;DHT22;31023;44.994;1.796;2023-04-06T12:46:37;18.10;41.70
45283;DHT22;31023;44.994;1.796;2023-04-06T12:49:02;17.80;42.70
45283;DHT22;31023;44.994;1.796;2023-04-06T12:51:28;17.40;40.30
45283;DHT22;31023;44.994;1.796;2023-04-06T12:53:54;17.30;44.90
45283;DHT22;31023;44.994;1.796;2023-04-06T12:56:20;17.20;44.30
45283;DHT22;31023;44.994;1.796;2023-04-06T12:58:51;17.20;46.30
45283;DHT22;31023;44.994;1.796;2023-04-06T13:01:17;17.10;42.40
45283;DHT22;31023;44.994;1.796;2023-04-06T13:03:43;16.90;41.30
45283;DHT22;31023;44.994;1.796;2023-04-06T13:06:09;16.90;43.10
45283;DHT22;31023;44.994;1.796;2023-04-06T13:08:35;16.70;44.10
45283;DHT22;31023;44.994;1.796;2023-04-06T13:11:02;16.70;45.00
45283;DHT22;31023;44.994;1.796;2023-04-06T13:13:29;16.70;42.20
45283;DHT22;31023;44.994;1.796;2023-04-06T13:15:58;16.60;40.80
45283;DHT22;31023;44.994;1.796;2023-04-06T13:18:24;16.40;39.90
45283;DHT22;31023;44.994;1.796;2023-04-06T13:20:50;16.30;36.50
45283;DHT22;31023;44.994;1.796;2023-04-06T13:23:16;16.30;37.50
45283;DHT22;31023;44.994;1.796;2023-04-06T13:25:42;16.30;36.00
45283;DHT22;31023;44.994;1.796;2023-04-06T13:28:09;16.10;33.30
45283;DHT22;31023;44.994;1.796;2023-04-06T13:30:35;16.20;34.30
45283;DHT22;31023;44.994;1.796;2023-04-06T13:33:01;16.20;36.10
45283;DHT22;31023;44.994;1.796;2023-04-06T13:35:27;16.40;38.40
45283;DHT22;31023;44.994;1.796;2023-04-06T13:37:53;16.50;41.30
45283;DHT22;31023;44.994;1.796;2023-04-06T13:40:19;16.60;36.30
45283;DHT22;31023;44.994;1.796;2023-04-06T13:42:44;16.50;36.00
45283;DHT22;31023;44.994;1.796;2023-04-06T13:45:11;17.00;39.80
45283;DHT22;31023;44.994;1.796;2023-04-06T13:47:37;17.50;38.00
45283;DHT22;31023;44.994;1.796;2023-04-06T13:50:03;17.80;37.00
45283;DHT22;31023;44.994;1.796;2023-04-06T13:52:29;18.00;39.50
45283;DHT22;31023;44.994;1.796;2023-04-06T13:54:55;18.40;35.60
45283;DHT22;31023;44.994;1.796;2023-04-06T13:57:21;18.20;31.80
45283;DHT22;31023;44.994;1.796;2023-04-06T13:59:47;18.50;35.60
45283;DHT22;31023;44.994;1.796;2023-04-06T14:02:13;18.80;38.80
45283;DHT22;31023;44.994;1.796;2023-04-06T14:04:39;18.60;38.50
45283;DHT22;31023;44.994;1.796;2023-04-06T14:07:04;18.60;38.30
45283;DHT22;31023;44.994;1.796;2023-04-06T14:09:33;18.50;38.10
45283;DHT22;31023;44.994;1.796;2023-04-06T14:11:58;18.20;37.10
45283;DHT22;31023;44.994;1.796;2023-04-06T14:14:24;18.10;36.90
45283;DHT22;31023;44.994;1.796;2023-04-06T14:16:51;17.90;36.90
45283;DHT22;31023;44.994;1.796;2023-04-06T14:19:17;17.50;35.40
45283;DHT22;31023;44.994;1.796;2023-04-06T14:21:44;17.50;41.30
45283;DHT22;31023;44.994;1.796;2023-04-06T14:24:10;17.10;46.30
45283;DHT22;31023;44.994;1.796;2023-04-06T14:26:37;17.20;46.90
45283;DHT22;31023;44.994;1.796;2023-04-06T14:29:04;17.00;41.10
45283;DHT22;31023;44.994;1.796;2023-04-06T14:31:30;17.30;47.10
45283;DHT22;31023;44.994;1.796;2023-04-06T14:33:56;17.20;46.40
45283;DHT22;31023;44.994;1.796;2023-04-06T14:36:22;17.30;48.50
45283;DHT22;31023;44.994;1.796;2023-04-06T14:38:47;17.30;48.20
45283;DHT22;31023;44.994;1.796;2023-04-06T14:41:20;17.30;48.40
45283;DHT22;31023;44.994;1.796;2023-04-06T14:43:47;17.00;48.80
45283;DHT22;31023;44.994;1.796;2023-04-06T14:46:13;16.90;47.90
45283;DHT22;31023;44.994;1.796;2023-04-06T14:48:39;17.30;51.10
45283;DHT22;31023;44.994;1.796;2023-04-06T14:51:05;17.40;49.70
45283;DHT22;31023;44.994;1.796;2023-04-06T14:53:31;17.60;50.10
45283;DHT22;31023;44.994;1.796;2023-04-06T14:55:57;17.30;49.30
45283;DHT22;31023;44.994;1.796;2023-04-06T14:58:23;17.30;50.70
45283;DHT22;31023;44.994;1.796;2023-04-06T15:00:49;17.10;51.30
45283;DHT22;31023;44.994;1.796;2023-04-06T15:03:15;17.00;50.50
45283;DHT22;31023;44.994;1.796;2023-04-06T15:05:41;17.20;48.90
45283;DHT22;31023;44.994;1.796;2023-04-06T15:08:07;17.10;47.70
45283;DHT22;31023;44.994;1.796;2023-04-06T15:10:37;17.30;51.00
45283;DHT22;31023;44.994;1.796;2023-04-06T15:13:02;17.50;50.70
45283;DHT22;31023;44.994;1.796;2023-04-06T15:15:28;17.60;50.90
45283;DHT22;31023;44.994;1.796;2023-04-06T15:17:54;17.60;50.50
45283;DHT22;31023;44.994;1.796;2023-04-06T15:20:19;17.50;50.60
45283;DHT22;31023;44.994;1.796;2023-04-06T15:22:46;17.70;49.70
45283;DHT22;31023;44.994;1.796;2023-04-06T15:25:11;17.60;51.50
45283;DHT22;31023;44.994;1.796;2023-04-06T15:27:37;17.30;51.70
45283;DHT22;31023;44.994;1.796;2023-04-06T15:30:03;17.10;50.90
45283;DHT22;31023;44.994;1.796;2023-04-06T15:32:29;17.10;50.80
45283;DHT22;31023;44.994;1.796;2023-04-06T15:34:57;17.00;50.90
45283;DHT22;31023;44.994;1.796;2023-04-06T15:37:23;16.90;50.10
45283;DHT22;31023;44.994;1.796;2023-04-06T15:39:49;16.60;54.00
45283;DHT22;31023;44.994;1.796;2023-04-06T15:42:14;16.60;54.10